VHHHRPLI

Guest
Details From VHHH - Hong Kong Intl
To RPLI - LAOAG INTL
Flight Number -
Tags decoded
Created
Modified
Stats Distance 481 nm / 890 km
Max Altitude 0 ft / 0 m
Waypoints 3
Social Downloads 0
Likes 0
Share VATSIM

Download

Looking for another format? Having issues loading an existing format? Contact us
Advertisement - Login to hide

Notes

Requested: VHHH FQG JNJ XLN JCS GLN RPLI Unmatched points: JNJ XLN JCS

Route

VHHH GLN RPLI

ID Type Via Altitude Latitude Longitude Leg Dist Tot Dist Heading (true) Name
O VHHH APT - 0 ft / 0 m 22.30899˚ 113.91461˚ - 0 nm - Hong Kong Intl
GLN VOR - 0 ft / 0 m 22.71000˚ 114.03500˚ 24 nm 24 nm 15° / 16° GUANLAN VOR-DME
O RPLI APT - 0 ft / 0 m 18.17614˚ 120.53110˚ 455 nm 480 nm 126° / 128° LAOAG INTL

Altitude Profile

Advertisement - Login to hide

Weather


0- 5 10 15 20 25 30 35+ Temperature / ° C

Clouds and Precipitation
Forecast for 2017-12-16 12:00 UTC. Updated 3 minutes ago

Ground ~20,000 ft ~40,000 ft Winds

VHHH

Details ICAO VHHH (HKG)
Name Hong Kong Intl
Region Hong Kong
Timezone Unknown (UTC+0.0)
Stats Elevation 28 ft / 9 m (AMSL)
Location 22.308995° 113.914610°
Runways 2
Magnetic Variation 2.822° W

METAR

VHHH 160700Z 02017KT 9999 FEW030 17/07 Q1023 NOSIG

Decode

TAF

TAF VHHH 160500Z 1606/1712 01015KT 9999 FEW020 SCT030 TX17/1606Z TX16/1706Z TN11/1623Z TEMPO 1609/1616 36020G30KT

Decode

Departure Runways

ID Width Length Bearing (true) Bearing (mag) Surface Threshold Offset Overrun Length
07L 197 ft / 60 m 12,457 ft / 3,797 m 70.79° 73.61° Asphalt 564 ft / 172 m 866 ft / 264 m
07R 197 ft / 60 m 12,458 ft / 3,797 m 70.79° 73.61° Asphalt 525 ft / 160 m 886 ft / 270 m
25L 197 ft / 60 m 12,458 ft / 3,797 m 250.80° 253.62° Asphalt 0 ft / 0 m 840 ft / 256 m
25R 197 ft / 60 m 12,457 ft / 3,797 m 250.80° 253.62° Asphalt 581 ft / 177 m 860 ft / 262 m

RPLI

Details ICAO RPLI (LAO)
Name LAOAG INTL
Region Philippines
Timezone Asia/Manila (UTC+8.0)
Stats Elevation 25 ft / 8 m (AMSL)
Location 18.176144° 120.531104°
Runways 1
Magnetic Variation 2.865° W

METAR

RPLI 160700Z 04008G24KT 9999 FEW019 BKN280 26/19 Q1011 NOSIG RMK A2985

Decode

TAF

TAF RPLI 160500Z 1606/1706 05012KT 9999 FEW019 BKN280 TEMPO 1606/1612 06014G24KT FEW019 BKN100 TEMPO 1700/1706 04018G30KT SCT019 BKN100

Decode

Destination Runways

ID Width Length Bearing (true) Bearing (mag) Surface Threshold Offset Overrun Length
01 148 ft / 45 m 9,165 ft / 2,793 m 5.37° 8.24° Concrete 1,181 ft / 360 m 1,200 ft / 366 m
19 148 ft / 45 m 9,165 ft / 2,793 m 185.37° 188.24° Concrete 0 ft / 0 m 0 ft / 0 m

Popular Alternatives